Time;durP1;ratioP1;P1;durP2;ratioP2;P2;SDS_P1;SDS_P2;PMS_P1;PMS_P2;Temp;Humidity;BMP_temperature;BMP_pressure;BME280_temperature;BME280_humidity;BME280_pressure;Samples;Min_cycle;Max_cycle;Signal;HPM_P1;HPM_P2
2023/06/04 00:00:06;;;;;;;89.15;81.60;;;;;;;;;;1745287;82;25506;-56
2023/06/04 00:02:33;;;;;;;;;;;;;;;;;;1747753;82;26234;-57
2023/06/04 00:05:02;;;;;;;90.70;82.78;;;;;;;;;;1729042;83;25514;-55
2023/06/04 00:07:29;;;;;;;94.35;86.95;;;;;;;;;;1759167;81;28069;-58
2023/06/04 00:09:57;;;;;;;87.27;80.10;;;;;;;;;;1745161;82;27247;-58
2023/06/04 00:12:24;;;;;;;91.78;84.42;;;;;;;;;;1744209;81;25520;-57
2023/06/04 00:14:51;;;;;;;92.00;84.55;;;;;;;;;;1740301;82;27753;-57
2023/06/04 00:17:18;;;;;;;88.55;80.85;;;;;;;;;;1740229;82;25521;-56
2023/06/04 00:19:45;;;;;;;85.83;78.92;;;;;;;;;;1740211;82;27434;-57
2023/06/04 00:22:11;;;;;;;91.65;84.60;;;;;;;;;;1740066;82;25355;-56
2023/06/04 00:24:42;;;;;;;95.00;86.07;;;;;;;;;;1740196;82;25337;-57
2023/06/04 00:27:09;;;;;;;93.07;85.45;;;;;;;;;;1740156;82;25539;-57
2023/06/04 00:29:36;;;;;;;88.05;81.12;;;;;;;;;;1740265;82;25461;-56
2023/06/04 00:32:05;;;;;;;97.45;89.32;;;;;;;;;;1740204;82;27352;-56
2023/06/04 00:34:32;;;;;;;85.03;77.92;;;;;;;;;;1740316;82;25663;-56
2023/06/04 00:37:01;;;;;;;85.73;78.53;;;;;;;;;;1740213;82;25314;-57
2023/06/04 00:39:29;;;;;;;58.75;54.03;;;;;;;;;;1740333;82;25624;-53
2023/06/04 00:41:57;;;;;;;62.00;57.07;;;;;;;;;;1740476;82;25457;-53
2023/06/04 00:44:25;;;;;;;6.07;5.77;;;;;;;;;;1740297;82;28271;-54
2023/06/04 00:46:53;;;;;;;61.75;56.80;;;;;;;;;;1740251;82;29577;-53
2023/06/04 00:49:20;;;;;;;92.57;85.07;;;;;;;;;;1740195;82;25272;-57
2023/06/04 00:51:49;;;;;;;70.73;65.43;;;;;;;;;;1740130;82;25449;-54
2023/06/04 00:54:17;;;;;;;59.17;53.67;;;;;;;;;;1740273;82;25309;-54
2023/06/04 00:59:09;;;;;;;20.77;10.35;;;;;;;5.93;61.75;101005.43;1905446;74;34637;-54
2023/06/04 01:01:51;;;;;;;;;;;;;;;5.85;61.82;100997.86;1862812;77;25562;-57
2023/06/04 01:04:26;;;;;;;28.75;25.92;;;;;;;5.85;61.97;100991.14;1859988;77;29707;-57
2023/06/04 01:06:57;;;;;;;26.75;18.02;;;;;;;5.82;61.79;100993.80;1859846;76;25817;-56
2023/06/04 01:09:26;;;;;;;88.37;81.32;;;;;;;5.79;62.02;100995.14;1860094;76;25368;-56
2023/06/04 01:11:54;;;;;;;18.65;9.75;;;;;;;5.76;62.04;100990.83;1860179;76;25414;-53
2023/06/04 01:14:24;;;;;;;20.08;10.30;;;;;;;5.78;61.68;100995.41;1860091;77;25375;-54
2023/06/04 01:17:02;;;;;;;11.12;6.62;;;;;;;5.77;61.96;100997.28;1860011;76;27524;-54
2023/06/04 01:19:47;;;;;;;;;;;;;;;5.73;62.11;100992.14;1862757;77;25351;-53
2023/06/04 01:22:25;;;;;;;19.15;8.88;;;;;;;5.72;62.53;100989.72;1860055;77;25432;-54
2023/06/04 01:24:56;;;;;;;29.57;18.70;;;;;;;5.70;62.20;100996.68;1838368;77;25627;-55
2023/06/04 01:27:23;;;;;;;86.02;79.45;;;;;;;5.66;62.52;100992.11;1859732;76;25410;-56
2023/06/04 01:29:51;;;;;;;67.20;61.90;;;;;;;5.64;62.87;100994.25;1859787;77;27462;-55
2023/06/04 01:32:18;;;;;;;83.27;77.05;;;;;;;5.63;62.53;100989.39;1859932;77;25382;-53
2023/06/04 01:34:46;;;;;;;87.15;80.65;;;;;;;5.61;62.77;100987.51;1860016;77;25350;-54
2023/06/04 01:37:13;;;;;;;83.33;76.90;;;;;;;5.60;62.74;100992.08;1859949;76;25855;-56
2023/06/04 01:39:39;;;;;;;90.72;83.45;;;;;;;5.60;63.15;100984.02;1860038;77;25461;-53
2023/06/04 01:42:06;;;;;;;83.97;77.72;;;;;;;5.59;62.82;100993.67;1860020;76;28205;-53
2023/06/04 01:44:33;;;;;;;75.35;69.65;;;;;;;5.57;62.90;100991.25;1859913;77;25420;-54
2023/06/04 01:47:01;;;;;;;82.37;75.97;;;;;;;5.56;63.43;100994.19;1860024;76;25278;-54
2023/06/04 01:49:27;;;;;;;1.05;1.05;;;;;;;5.56;63.42;100982.11;1860124;76;25342;-53
2023/06/04 01:54:23;;;;;;;23.42;10.58;;;;;;;5.64;63.32;100998.28;1908536;74;28662;-53
2023/06/04 01:56:49;;;;;;;21.93;10.25;;;;;;;5.59;62.75;100991.79;1878605;75;32455;-53
2023/06/04 01:59:16;;;;;;;16.10;8.70;;;;;;;5.62;62.69;100993.16;1894864;75;28243;-55
2023/06/04 02:01:43;;;;;;;20.40;8.93;;;;;;;5.61;63.16;100992.87;1822035;78;25550;-56
2023/06/04 02:04:09;;;;;;;17.35;7.92;;;;;;;5.59;63.39;100994.47;1855697;77;25426;-54
2023/06/04 02:06:37;;;;;;;14.30;7.80;;;;;;;5.56;63.64;100987.48;1822084;78;25470;-56
2023/06/04 02:09:03;;;;;;;14.85;8.35;;;;;;;5.53;63.87;100979.39;1855674;77;25599;-55
2023/06/04 02:11:29;;;;;;;15.08;7.70;;;;;;;5.52;63.72;100986.39;1822085;78;27473;-56
2023/06/04 02:13:58;;;;;;;18.75;8.38;;;;;;;5.49;63.99;100985.55;1855528;77;25586;-55
2023/06/04 02:16:24;;;;;;;16.05;8.03;;;;;;;5.46;64.18;100982.84;1822087;78;25394;-54
2023/06/04 02:18:50;;;;;;;19.23;8.45;;;;;;;5.43;64.26;100984.69;1855574;77;25593;-56
2023/06/04 02:21:16;;;;;;;13.78;7.97;;;;;;;5.42;64.43;100983.89;1822122;78;32337;-56
2023/06/04 02:23:42;;;;;;;16.45;7.95;;;;;;;5.40;64.79;100987.91;1855602;77;27525;-53
2023/06/04 02:26:10;;;;;;;14.30;8.38;;;;;;;5.36;64.68;100984.94;1822064;78;27324;-55
2023/06/04 02:28:37;;;;;;;19.50;8.45;;;;;;;5.36;64.89;100986.78;1822265;78;25435;-55
2023/06/04 02:31:04;;;;;;;20.40;7.72;;;;;;;5.35;64.55;100983.84;1822031;78;25354;-56
2023/06/04 02:33:31;;;;;;;18.75;8.15;;;;;;;5.35;64.66;100983.31;1822096;78;25414;-56
2023/06/04 02:35:57;;;;;;;18.45;8.28;;;;;;;5.35;64.75;100982.50;1822078;78;27475;-57
2023/06/04 02:38:24;;;;;;;11.80;7.90;;;;;;;5.34;65.06;100983.02;1822022;78;25614;-56
2023/06/04 02:40:50;;;;;;;14.87;8.35;;;;;;;5.35;64.94;100985.98;1822043;78;25443;-52
2023/06/04 02:43:16;;;;;;;20.27;8.80;;;;;;;5.35;65.32;100984.64;1822007;78;34747;-56
2023/06/04 02:45:44;;;;;;;16.42;8.55;;;;;;;5.38;65.91;100987.34;1790411;78;25587;-56
2023/06/04 02:48:10;;;;;;;13.98;8.18;;;;;;;5.41;66.20;100989.00;1822048;78;27502;-54
2023/06/04 02:50:36;;;;;;;15.15;8.05;;;;;;;5.44;66.25;100991.69;1821935;78;25375;-57
2023/06/04 02:53:02;;;;;;;17.42;8.03;;;;;;;5.46;66.49;100987.41;1821893;78;25491;-56
2023/06/04 02:55:28;;;;;;;17.67;9.05;;;;;;;5.50;66.65;100987.98;1821968;78;27427;-57
2023/06/04 02:57:54;;;;;;;19.45;8.13;;;;;;;5.56;66.97;100984.79;1822064;78;32792;-56
2023/06/04 03:00:20;;;;;;;17.70;8.65;;;;;;;5.61;66.92;100990.99;1822166;78;27705;-57
2023/06/04 03:02:48;;;;;;;14.45;7.50;;;;;;;5.65;66.75;100988.59;1822055;78;25849;-56
2023/06/04 03:05:17;;;;;;;14.53;7.37;;;;;;;5.71;66.49;100989.46;1821844;78;25535;-58
2023/06/04 03:07:47;;;;;;;16.02;7.67;;;;;;;5.74;66.66;100992.97;1821606;78;25615;-57
2023/06/04 03:10:16;;;;;;;13.60;6.67;;;;;;;5.77;66.40;100991.09;1821872;78;25599;-55
2023/06/04 03:12:43;;;;;;;14.58;6.85;;;;;;;5.79;66.14;100991.12;1821622;78;29636;-54
2023/06/04 03:15:12;;;;;;;12.50;7.47;;;;;;;5.82;66.22;100997.03;1854883;77;25544;-53
2023/06/04 03:17:38;;;;;;;13.05;7.33;;;;;;;5.85;66.08;100993.29;1821452;78;25571;-54
2023/06/04 03:20:07;;;;;;;13.15;7.00;;;;;;;5.87;66.22;100989.80;1821405;78;25577;-57
2023/06/04 03:22:35;;;;;;;14.85;7.00;;;;;;;5.89;66.30;100991.72;1821620;78;32491;-54
2023/06/04 03:25:05;;;;;;;16.45;7.58;;;;;;;5.93;66.50;100992.80;1821478;78;27457;-56
2023/06/04 03:27:34;;;;;;;15.20;8.00;;;;;;;5.97;66.22;100987.75;1821526;78;25530;-52
2023/06/04 03:30:00;;;;;;;14.87;7.93;;;;;;;6.00;66.48;100984.55;1821709;78;25399;-55
2023/06/04 03:32:26;;;;;;;13.35;7.95;;;;;;;6.04;66.47;100988.31;1821413;78;25477;-56
2023/06/04 03:34:54;;;;;;;13.18;6.78;;;;;;;6.08;66.64;100986.73;1821501;78;25441;-57
2023/06/04 03:37:20;;;;;;;14.55;7.10;;;;;;;6.13;66.58;100987.27;1821414;78;27510;-57
2023/06/04 03:39:47;;;;;;;17.92;7.15;;;;;;;6.19;66.56;100992.95;1821369;78;25948;-55
2023/06/04 03:42:13;;;;;;;12.28;6.85;;;;;;;6.25;66.81;100998.63;1821419;78;25431;-54
2023/06/04 03:44:39;;;;;;;24.07;7.83;;;;;;;6.30;66.71;100991.94;1821382;78;25364;-55
2023/06/04 03:47:06;;;;;;;10.82;5.90;;;;;;;6.37;66.60;100994.38;1821419;78;25628;-58
2023/06/04 03:49:32;;;;;;;11.30;6.30;;;;;;;6.42;66.30;100996.25;1821435;78;28315;-58
2023/06/04 03:51:58;;;;;;;10.48;6.42;;;;;;;6.48;66.49;100997.90;1821355;78;25536;-57
2023/06/04 03:54:24;;;;;;;13.68;6.15;;;;;;;6.52;66.03;100997.63;1825915;78;25411;-57
2023/06/04 03:56:50;;;;;;;12.05;5.62;;;;;;;6.58;66.19;101003.85;1827432;78;27400;-56
2023/06/04 03:59:16;;;;;;;15.98;6.95;;;;;;;6.63;66.29;101004.66;1827480;78;25385;-57
2023/06/04 04:01:43;;;;;;;15.00;6.20;;;;;;;6.71;66.30;101006.04;1827497;78;27485;-58
2023/06/04 04:04:10;;;;;;;13.22;6.08;;;;;;;6.76;66.02;100998.50;1827396;78;25342;-58
2023/06/04 04:06:37;;;;;;;10.95;5.95;;;;;;;6.85;66.32;101000.95;1827462;78;25541;-57
2023/06/04 04:09:06;;;;;;;11.68;5.85;;;;;;;6.92;66.41;101000.95;1827460;78;27346;-57
2023/06/04 04:11:33;;;;;;;10.13;6.40;;;;;;;7.01;66.31;100996.39;1827608;78;25536;-56
2023/06/04 04:14:00;;;;;;;9.25;4.97;;;;;;;7.09;66.01;100994.52;1827466;78;27621;-58
2023/06/04 04:16:27;;;;;;;13.60;6.55;;;;;;;7.17;65.79;101001.23;1827378;78;25578;-56
2023/06/04 04:18:54;;;;;;;9.23;5.58;;;;;;;7.25;66.30;100993.98;1827480;78;25527;-58
2023/06/04 04:21:21;;;;;;;8.23;5.00;;;;;;;7.37;66.19;100998.58;1827419;78;27329;-57
2023/06/04 04:24:09;;;;;;;10.68;6.37;;;;;;;7.49;66.22;100994.23;1827503;78;25426;-58
2023/06/04 04:26:36;;;;;;;9.87;5.10;;;;;;;7.60;66.25;100987.77;1647483;86;27776;-57
2023/06/04 04:29:03;;;;;;;9.23;4.10;;;;;;;7.76;65.84;100992.58;1674739;85;25664;-57
2023/06/04 04:31:30;;;;;;;7.87;4.78;;;;;;;7.89;65.44;100997.95;1675006;85;25603;-54
2023/06/04 04:33:56;;;;;;;22.95;20.80;;;;;;;8.05;65.56;100994.66;1674930;85;35232;-54
2023/06/04 08:51:56;;;;;;;55.70;52.88;;;;;;;25.79;25.82;100974.42;1731525;81;25918;-51
2023/06/04 08:54:23;;;;;;;67.70;64.30;;;;;;;26.09;25.16;100977.39;1770281;81;25440;-51
2023/06/04 08:56:51;;;;;;;2.00;1.50;;;;;;;26.35;24.83;100971.19;1765868;81;25511;-52
2023/06/04 08:59:18;;;;;;;3.42;1.80;;;;;;;26.58;24.75;100970.69;1765882;80;25561;-49
2023/06/04 09:01:44;;;;;;;5.28;1.30;;;;;;;26.74;24.50;100982.75;1766145;81;25631;-56
2023/06/04 09:04:12;;;;;;;3.35;0.90;;;;;;;26.74;23.25;100984.92;1770427;81;29574;-56
2023/06/04 09:06:41;;;;;;;63.42;60.28;;;;;;;26.70;23.79;100980.00;1762935;81;25791;-51
2023/06/04 09:09:09;;;;;;;;;;;;;;;26.92;23.62;100975.70;1773935;81;25559;-51
2023/06/04 09:11:44;;;;;;;1.32;0.70;;;;;;;27.33;23.67;100977.88;1753840;81;25638;-56
2023/06/04 09:14:12;;;;;;;2.10;0.70;;;;;;;27.60;23.19;100986.41;1764546;79;25483;-56
2023/06/04 09:16:46;;;;;;;3.62;1.20;;;;;;;27.75;23.02;100975.93;1771290;79;27469;-54
2023/06/04 09:19:14;;;;;;;11.33;10.72;;;;;;;27.89;22.73;100973.03;1770670;81;25309;-53
2023/06/04 09:21:58;;;;;;;17.35;16.32;;;;;;;27.97;22.47;100975.16;1766165;81;25597;-53
2023/06/04 09:24:28;;;;;;;4.33;1.12;;;;;;;28.26;22.54;100970.07;1762212;79;25681;-52
2023/06/04 09:26:54;;;;;;;61.40;58.30;;;;;;;28.74;22.50;100971.14;1743901;79;25543;-52
2023/06/04 09:29:20;;;;;;;60.70;57.80;;;;;;;29.09;22.27;100962.69;1768933;81;27585;-52
2023/06/04 09:31:50;;;;;;;16.27;15.32;;;;;;;29.41;21.79;100968.56;1771132;81;26108;-54
2023/06/04 09:34:16;;;;;;;1.82;0.70;;;;;;;29.50;21.24;100974.98;1769617;81;25748;-54
2023/06/04 09:36:42;;;;;;;45.73;43.35;;;;;;;29.40;20.92;100971.77;1771182;81;25408;-53
2023/06/04 09:39:16;;;;;;;1.82;0.68;;;;;;;29.50;20.96;100971.42;1771305;81;25569;-54
2023/06/04 09:41:43;;;;;;;3.05;0.80;;;;;;;29.62;20.76;100966.63;1770063;79;27468;-55
2023/06/04 09:44:11;;;;;;;60.78;57.85;;;;;;;29.73;20.69;100971.42;1743064;81;25826;-53
2023/06/04 09:46:38;;;;;;;60.95;58.00;;;;;;;29.82;19.89;100970.90;1770422;79;25634;-54
2023/06/04 09:49:05;;;;;;;61.50;58.40;;;;;;;29.53;19.90;100965.79;1758452;81;25739;-52
2023/06/04 09:51:33;;;;;;;59.15;56.18;;;;;;;29.32;19.76;100954.41;1770953;81;25479;-51
2023/06/04 09:54:04;;;;;;;45.63;43.25;;;;;;;28.98;19.78;100953.08;1765709;81;27474;-53
2023/06/04 09:56:41;;;;;;;3.00;0.42;;;;;;;28.99;19.93;100958.23;1767035;81;25712;-52
2023/06/04 09:59:09;;;;;;;1.82;1.70;;;;;;;29.12;20.26;100956.28;1752562;81;25569;-51
2023/06/04 10:01:41;;;;;;;59.08;56.15;;;;;;;29.21;20.01;100957.34;1750174;82;25704;-52
2023/06/04 10:04:11;;;;;;;59.00;56.05;;;;;;;29.40;19.85;100951.66;1767166;81;25554;-50
2023/06/04 10:06:39;;;;;;;60.90;57.93;;;;;;;29.46;19.73;100949.20;1770697;81;27467;-51
2023/06/04 10:09:11;;;;;;;59.13;56.08;;;;;;;29.63;19.55;100941.74;1758722;81;27353;-50
2023/06/04 10:11:51;;;;;;;61.20;58.17;;;;;;;29.51;19.29;100956.27;1760576;81;25688;-50
2023/06/04 10:14:29;;;;;;;61.63;58.52;;;;;;;29.33;19.45;100944.81;1755776;81;25475;-56
2023/06/04 10:16:58;;;;;;;61.13;57.93;;;;;;;29.60;19.70;100949.55;1770939;79;25481;-57
2023/06/04 10:19:25;;;;;;;59.83;56.90;;;;;;;29.90;19.60;100934.70;1770720;81;27530;-57
2023/06/04 10:21:53;;;;;;;59.03;56.13;;;;;;;30.29;19.83;100935.94;1763983;79;25753;-56
2023/06/04 10:24:20;;;;;;;60.15;57.25;;;;;;;30.61;19.00;100930.91;1757690;79;25458;-57
2023/06/04 10:29:18;;;;;;;58.30;55.50;;;;;;;30.67;18.57;100931.98;1665543;84;25511;-55
2023/06/04 10:31:45;;;;;;;58.55;55.75;;;;;;;30.81;18.26;100926.06;1647721;86;27431;-57
2023/06/04 10:34:12;;;;;;;58.90;55.92;;;;;;;30.85;18.17;100932.37;1651959;84;27380;-58
2023/06/04 10:36:45;;;;;;;52.55;49.88;;;;;;;31.05;17.89;100925.95;1590889;88;25549;-53
2023/06/04 10:39:12;;;;;;;31.80;30.08;;;;;;;31.18;17.90;100924.03;1627885;88;25689;-51
2023/06/04 10:41:38;;;;;;;60.45;57.35;;;;;;;31.09;17.67;100916.86;1612044;87;25626;-50
2023/06/04 10:44:05;;;;;;;58.38;55.48;;;;;;;31.06;17.65;100914.34;1647501;87;27239;-53
2023/06/04 10:46:42;;;;;;;58.92;55.90;;;;;;;30.91;17.74;100909.67;1644941;87;25926;-54
2023/06/04 10:49:12;;;;;;;59.00;55.63;;;;;;;30.64;17.80;100916.88;1639906;86;25643;-50
2023/06/04 10:51:38;;;;;;;60.50;57.50;;;;;;;29.97;17.51;100918.45;1610718;87;25871;-50
2023/06/04 10:54:05;;;;;;;62.30;59.08;;;;;;;29.67;18.26;100922.16;1637042;87;25633;-47
2023/06/04 10:56:37;;;;;;;59.42;56.53;;;;;;;29.88;18.50;100912.63;1641163;87;27662;-49
2023/06/04 10:59:18;;;;;;;59.35;56.20;;;;;;;30.12;18.20;100914.75;1629726;87;25544;-51
2023/06/04 11:01:48;;;;;;;41.48;39.25;;;;;;;30.34;18.29;100912.30;1635555;87;25743;-51
2023/06/04 11:04:26;;;;;;;0.65;0.65;;;;;;;30.24;18.18;100916.91;1628794;86;25561;-51
2023/06/04 11:07:10;;;;;;;1.95;0.75;;;;;;;30.33;17.90;100910.75;1631679;87;25463;-50
2023/06/04 11:09:50;;;;;;;2.15;0.80;;;;;;;30.73;18.17;100908.70;1580812;89;28251;-51
2023/06/04 11:12:17;;;;;;;1.37;0.60;;;;;;;30.73;18.17;100908.70;1576910;90;25537;-53
2023/06/04 11:14:58;;;;;;;1.82;0.60;;;;;;;30.96;17.73;100908.41;1581435;89;25881;-53
2023/06/04 11:17:24;;;;;;;20.65;19.55;;;;;;;31.12;17.87;100910.41;1591685;88;25268;-53
2023/06/04 11:19:55;;;;;;;58.65;55.58;;;;;;;31.50;17.74;100903.48;1582590;88;25540;-53
2023/06/04 11:22:19;;;;;;;58.30;55.30;;;;;;;31.79;17.74;100902.13;1589212;88;27532;-54
2023/06/04 11:24:46;;;;;;;57.43;54.23;;;;;;;32.15;17.60;100898.37;1591775;89;25867;-50
2023/06/04 11:27:12;;;;;;;57.80;55.00;;;;;;;32.42;16.98;100892.38;1579271;89;25549;-50
2023/06/04 11:29:39;;;;;;;58.13;55.23;;;;;;;32.52;16.86;100903.05;1588661;89;25681;-52
2023/06/04 11:32:07;;;;;;;54.70;52.08;;;;;;;32.56;16.81;100905.92;1591296;87;25571;-49
2023/06/04 11:34:33;;;;;;;47.17;44.85;;;;;;;32.46;16.73;100904.86;1629172;86;27589;-50
2023/06/04 11:37:10;;;;;;;54.53;51.83;;;;;;;32.42;16.88;100897.16;1646758;87;25653;-49
2023/06/04 11:39:39;;;;;;;56.73;54.00;;;;;;;32.53;17.16;100900.43;1639924;87;25726;-49
2023/06/04 11:42:07;;;;;;;57.20;54.40;;;;;;;32.69;16.89;100896.16;1628213;86;25351;-51
2023/06/04 11:44:34;;;;;;;57.70;54.90;;;;;;;32.55;16.94;100888.16;1611132;87;25744;-55
2023/06/04 11:47:01;;;;;;;55.83;53.13;;;;;;;32.74;16.82;100892.00;1726754;81;27622;-55
2023/06/04 11:49:28;;;;;;;55.92;53.23;;;;;;;32.85;16.60;100902.88;1749598;82;25697;-54
2023/06/04 11:51:55;;;;;;;58.23;55.23;;;;;;;32.48;16.32;100892.59;1719257;82;25641;-55
2023/06/04 11:54:22;;;;;;;58.65;55.70;;;;;;;32.32;16.22;100892.08;1745246;81;26044;-54
2023/06/04 11:56:51;;;;;;;57.78;54.80;;;;;;;32.23;16.21;100891.31;1743507;81;25737;-55
2023/06/04 11:59:19;;;;;;;57.98;54.93;;;;;;;32.14;16.36;100901.77;1743630;81;29619;-52
2023/06/04 12:01:48;;;;;;;58.38;54.93;;;;;;;31.81;16.46;100900.47;1743228;82;25693;-56
2023/06/04 12:04:17;;;;;;;57.73;54.98;;;;;;;31.65;16.55;100898.52;1748711;81;25998;-57
2023/06/04 12:06:59;;;;;;;;;;;;;;;31.66;16.89;100890.91;1743416;82;25608;-58
2023/06/04 12:09:38;;;;;;;58.33;55.25;;;;;;;31.80;16.61;100884.13;1745818;81;25143;-57
2023/06/04 12:12:06;;;;;;;58.17;55.10;;;;;;;31.86;16.89;100883.77;1725861;81;28083;-57
2023/06/04 12:14:34;;;;;;;56.80;54.10;;;;;;;32.03;16.92;100885.27;1726951;82;25482;-58
2023/06/04 12:17:06;;;;;;;56.10;53.43;;;;;;;32.10;16.66;100882.13;1743635;81;25553;-58
2023/06/04 12:19:36;;;;;;;56.10;53.40;;;;;;;32.06;16.58;100880.81;1742723;81;25412;-58
2023/06/04 12:22:07;;;;;;;56.88;53.95;;;;;;;32.12;17.07;100888.84;1725913;81;25400;-57
2023/06/04 12:24:37;;;;;;;57.33;54.42;;;;;;;32.30;16.50;100887.52;1744081;82;27512;-58
2023/06/04 12:27:08;;;;;;;57.78;54.70;;;;;;;31.84;16.39;100882.81;1739619;82;25394;-57
2023/06/04 12:29:35;;;;;;;57.50;54.53;;;;;;;31.22;16.41;100887.00;1732241;82;25565;-57
2023/06/04 12:32:11;;;;;;;56.77;53.98;;;;;;;30.66;15.49;100886.52;1748363;81;25473;-57
2023/06/04 12:34:40;;;;;;;57.33;54.48;;;;;;;29.64;16.31;100886.78;1744065;81;25463;-58
2023/06/04 12:37:08;;;;;;;30.80;29.05;;;;;;;28.77;17.07;100879.03;1745930;81;27867;-58
2023/06/04 12:39:36;;;;;;;58.13;55.23;;;;;;;28.40;17.56;100880.70;1743894;82;25565;-57
2023/06/04 12:42:06;;;;;;;62.17;58.80;;;;;;;27.90;18.08;100873.75;1743948;82;25802;-57
2023/06/04 12:44:32;;;;;;;61.10;58.00;;;;;;;27.82;18.96;100873.05;1742423;81;25786;-57
2023/06/04 12:46:59;;;;;;;62.58;59.20;;;;;;;27.89;18.90;100880.50;1733643;81;25630;-49
2023/06/04 12:49:25;;;;;;;135.18;124.00;;;;;;;27.79;18.83;100873.06;1744008;82;27696;-50
2023/06/04 12:51:51;;;;;;;75.42;70.67;;;;;;;27.58;19.26;100877.06;1745122;81;25564;-49
2023/06/04 12:54:18;;;;;;;64.77;61.28;;;;;;;27.31;19.17;100873.34;1748213;80;25393;-49
2023/06/04 12:56:45;;;;;;;64.85;61.35;;;;;;;27.08;19.18;100879.47;1745946;81;26200;-48
2023/06/04 12:59:12;;;;;;;61.25;58.15;;;;;;;26.86;19.48;100881.61;1731862;82;25438;-48
2023/06/04 13:01:39;;;;;;;61.00;57.62;;;;;;;26.60;19.47;100876.78;1743916;82;27501;-48
2023/06/04 13:04:06;;;;;;;63.23;59.93;;;;;;;26.44;19.89;100876.66;1747919;81;25390;-49
2023/06/04 13:06:35;;;;;;;63.05;59.53;;;;;;;26.38;20.17;100873.33;1745576;81;25478;-49
2023/06/04 13:09:08;;;;;;;63.75;60.45;;;;;;;26.29;20.20;100872.38;1746885;81;25751;-47
2023/06/04 13:11:32;;;;;;;63.15;59.93;;;;;;;26.20;20.51;100876.17;1731905;82;25595;-52
2023/06/04 13:13:59;;;;;;;60.48;57.38;;;;;;;26.46;21.26;100872.11;1754252;80;27492;-48
2023/06/04 13:16:25;;;;;;;61.68;58.45;;;;;;;26.83;20.89;100874.29;1749417;80;25546;-49
2023/06/04 13:18:51;;;;;;;60.95;57.85;;;;;;;27.29;20.85;100875.73;1747118;80;25635;-49
2023/06/04 13:21:17;;;;;;;60.17;57.05;;;;;;;27.78;20.78;100868.12;1759745;80;26142;-47
2023/06/04 13:23:43;;;;;;;60.83;57.75;;;;;;;28.21;20.62;100871.80;1758968;81;25385;-51
2023/06/04 13:26:10;;;;;;;56.00;52.90;;;;;;;28.43;20.11;100875.70;1763021;81;27523;-47
2023/06/04 13:28:38;;;;;;;62.25;59.05;;;;;;;28.71;19.80;100873.16;1762734;80;25634;-51
2023/06/04 13:31:04;;;;;;;61.70;58.33;;;;;;;28.64;19.22;100871.85;1763117;80;25461;-49
2023/06/04 13:33:30;;;;;;;60.40;57.35;;;;;;;28.64;19.22;100871.85;1762837;80;25683;-49
2023/06/04 13:35:57;;;;;;;58.15;55.20;;;;;;;28.47;19.04;100869.50;1762874;81;25621;-47
2023/06/04 13:38:23;;;;;;;68.80;64.45;;;;;;;28.21;19.23;100875.20;1763427;80;27545;-48
2023/06/04 13:40:50;;;;;;;61.85;58.58;;;;;;;27.93;19.22;100870.17;1751232;80;25531;-47
2023/06/04 13:43:16;;;;;;;61.90;58.52;;;;;;;27.71;19.30;100862.03;1762847;81;25432;-48
2023/06/04 13:45:45;;;;;;;61.90;58.48;;;;;;;27.79;19.77;100859.98;1763044;81;25691;-48
2023/06/04 13:48:12;;;;;;;60.08;57.00;;;;;;;27.98;19.92;100864.77;1762136;80;25559;-48
2023/06/04 13:50:39;;;;;;;60.08;56.98;;;;;;;28.10;19.75;100864.99;1749798;81;27450;-48
2023/06/04 13:53:06;;;;;;;59.98;56.83;;;;;;;28.34;19.87;100863.70;1754801;81;25534;-47
2023/06/04 13:55:32;;;;;;;61.08;57.90;;;;;;;28.54;19.18;100861.05;1762849;81;25638;-47
2023/06/04 13:57:58;;;;;;;59.53;56.42;;;;;;;28.58;18.90;100856.24;1755924;80;26091;-47
2023/06/04 14:00:26;;;;;;;59.85;56.80;;;;;;;28.64;19.30;100850.98;1762794;81;25461;-48
2023/06/04 14:02:52;;;;;;;60.60;57.20;;;;;;;28.75;19.49;100858.58;1747750;80;27455;-50
2023/06/04 14:05:19;;;;;;;59.45;56.30;;;;;;;28.77;19.19;100847.80;1754739;81;25806;-52
2023/06/04 14:07:45;;;;;;;61.05;58.00;;;;;;;28.65;19.33;100851.18;1762859;81;25377;-54
2023/06/04 14:10:13;;;;;;;59.27;56.37;;;;;;;28.46;19.46;100849.84;1762837;81;26057;-51
2023/06/04 14:12:40;;;;;;;60.25;57.10;;;;;;;28.24;19.31;100851.51;1759814;80;25786;-54
2023/06/04 14:15:10;;;;;;;61.10;57.80;;;;;;;27.95;19.22;100847.69;1759213;81;27518;-48
2023/06/04 14:17:39;;;;;;;58.30;55.28;;;;;;;27.64;19.41;100845.45;1758913;81;25802;-47
2023/06/04 14:20:09;;;;;;;59.65;56.58;;;;;;;27.42;19.46;100846.27;1763008;81;25589;-50
2023/06/04 14:22:38;;;;;;;61.25;58.20;;;;;;;27.40;19.87;100841.73;1761327;80;25578;-48
2023/06/04 14:25:08;;;;;;;61.33;57.65;;;;;;;27.36;19.81;100846.51;1760648;80;25705;-49
2023/06/04 14:27:36;;;;;;;61.88;58.35;;;;;;;27.38;20.08;100843.52;1753422;79;28241;-47
2023/06/04 14:30:06;;;;;;;61.77;58.65;;;;;;;27.36;19.96;100846.51;1763045;81;25686;-46
2023/06/04 14:32:36;;;;;;;61.35;58.25;;;;;;;27.24;19.91;100845.00;1754914;80;25358;-46
2023/06/04 14:35:06;;;;;;;61.00;57.62;;;;;;;27.24;19.82;100838.05;1754814;81;25559;-47
2023/06/04 14:37:33;;;;;;;61.25;58.15;;;;;;;27.23;19.78;100837.11;1761386;80;25563;-47
2023/06/04 14:39:59;;;;;;;59.83;56.83;;;;;;;27.19;19.45;100840.70;1747755;79;27822;-49
2023/06/04 14:42:25;;;;;;;61.20;57.95;;;;;;;27.17;19.70;100836.13;1752012;81;25678;-48
2023/06/04 14:44:51;;;;;;;61.50;58.38;;;;;;;27.20;19.70;100834.53;1753471;80;25623;-50
2023/06/04 14:47:17;;;;;;;60.23;57.00;;;;;;;27.16;19.51;100838.73;1749564;80;25611;-47
2023/06/04 14:49:46;;;;;;;61.50;58.30;;;;;;;26.92;19.38;100840.52;1747824;80;25610;-47
2023/06/04 14:52:12;;;;;;;60.35;57.25;;;;;;;26.51;19.34;100843.14;1759021;80;28552;-47
2023/06/04 14:54:40;;;;;;;60.95;57.85;;;;;;;26.13;19.82;100836.80;1762643;80;25586;-47
2023/06/04 14:59:43;;;;;;;62.98;59.67;;;;;;;25.84;20.48;100829.16;1789843;78;25857;-47
2023/06/04 15:02:10;;;;;;;61.63;58.33;;;;;;;25.83;20.64;100830.34;1806069;78;25622;-47
2023/06/04 15:04:37;;;;;;;71.20;66.70;;;;;;;25.78;20.80;100834.33;1799954;78;27503;-45
2023/06/04 15:07:04;;;;;;;64.22;60.40;;;;;;;25.81;21.01;100826.61;1798154;78;25523;-46
2023/06/04 15:09:31;;;;;;;62.33;58.92;;;;;;;25.82;20.88;100832.93;1785174;78;25037;-47
2023/06/04 15:11:57;;;;;;;61.85;58.65;;;;;;;25.81;21.01;100825.80;1795984;78;25449;-48
2023/06/04 15:14:24;;;;;;;62.98;59.58;;;;;;;25.80;21.19;100827.01;1790363;78;25423;-49
2023/06/04 15:16:50;;;;;;;74.12;69.50;;;;;;;25.81;21.10;100834.11;1790800;78;27436;-53
2023/06/04 15:19:17;;;;;;;66.80;63.08;;;;;;;25.81;21.18;100828.00;1785943;78;25609;-51
2023/06/04 15:21:43;;;;;;;69.77;65.42;;;;;;;25.84;20.93;100822.23;1780700;78;25439;-46
2023/06/04 15:24:10;;;;;;;63.35;59.80;;;;;;;25.82;20.98;100823.23;1795183;78;25478;-47
2023/06/04 15:26:37;;;;;;;61.02;57.88;;;;;;;25.80;21.09;100825.02;1786379;78;25793;-46
2023/06/04 15:29:05;;;;;;;60.60;57.40;;;;;;;25.80;21.25;100829.78;1800711;78;28327;-46
2023/06/04 15:31:32;;;;;;;60.88;57.75;;;;;;;25.73;20.97;100825.83;1751899;79;25992;-47
2023/06/04 15:33:59;;;;;;;61.63;58.38;;;;;;;25.57;20.82;100824.08;1786533;78;25732;-48
2023/06/04 15:36:26;;;;;;;64.55;61.23;;;;;;;25.48;21.12;100823.72;1786656;78;25524;-48
2023/06/04 15:38:52;;;;;;;66.47;61.80;;;;;;;25.44;21.18;100822.95;1735593;81;25296;-47
2023/06/04 15:41:21;;;;;;;62.65;59.30;;;;;;;25.34;20.92;100819.78;1736135;81;27676;-46
2023/06/04 15:43:46;;;;;;;64.00;60.50;;;;;;;25.24;20.65;100815.62;1736088;81;25781;-48
2023/06/04 15:46:13;;;;;;;64.25;60.95;;;;;;;25.01;20.66;100811.86;1738022;81;25415;-49
2023/06/04 15:48:39;;;;;;;64.20;60.43;;;;;;;24.86;21.03;100810.48;1740010;82;26061;-49
2023/06/04 15:51:05;;;;;;;62.03;58.55;;;;;;;24.84;21.47;100811.45;1729054;81;25469;-48
2023/06/04 15:53:31;;;;;;;62.80;59.40;;;;;;;24.78;21.25;100808.30;1737246;81;28017;-47
2023/06/04 15:55:58;;;;;;;64.60;61.20;;;;;;;24.73;21.58;100816.98;1738987;81;25422;-48
2023/06/04 15:58:24;;;;;;;62.10;58.70;;;;;;;24.67;21.41;100815.00;1742303;81;25794;-47